Latest Weather Observations for Mandurah

IDW60901

Issued at 1:01 pm WST Sunday 24 May 2015 (issued every 10 minutes, with the page automatically refreshed every 10 minutes)

About weather observations | Map of Perth area stations | Latest observations for Perth area | Other Formats
Station Details ID: 009977 Name: MANDURAH Lat: -32.52 Lon: 115.71 Height: 3.0 m
Data from the previous 72 hours. | See also: Recent months at Mandurah
Date/Time
WST
Tmp

°C
App
Tmp
°C
Dew
Point
°C
Rel
Hum
%
Delta-T

°C
Wind Press
QNH
hPa
Press
MSL
hPa
Rain
since
9 am
mm
Dir
 
Spd
km/h
Gust
km/h
Spd
kts
Gust
kts
24/01:00pm 19.4 17.9 9.0 51 5.4 SSE 7 11 4 6 1021.0 1021.0 0.0
24/12:30pm 19.0 17.2 7.8 48 5.7 SSE 7 11 4 6 1021.3 1021.3 0.0
24/12:00pm 18.5 16.7 7.3 48 5.6 S 6 9 3 5 1021.7 1021.7 0.0
24/11:30am 18.4 18.2 10.5 60 4.2 SE 2 6 1 3 1022.0 1022.0 0.0
24/11:00am 18.4 17.8 10.5 60 4.2 E 4 7 2 4 1022.4 1022.4 0.0
24/10:30am 18.1 17.6 12.1 68 3.3 ESE 6 7 3 4 1022.6 1022.6 0.0
24/10:00am 16.5 16.0 12.1 75 2.4 ENE 6 9 3 5 1022.9 1022.9 0.0
24/09:30am 14.4 14.6 11.7 84 1.4 E 2 4 1 2 1023.0 1023.0 0.0
24/09:00am 13.4 13.0 12.3 93 0.6 SE 6 9 3 5 1023.0 1023.0 2.6
24/08:30am 12.2 11.6 11.7 97 0.3 SSE 6 7 3 4 1022.7 1022.7 2.6
24/08:00am 11.8 11.2 11.6 99 0.1 SSE 6 9 3 5 1022.7 1022.7 2.6
24/07:30am 11.8 11.0 11.6 99 0.1 SSE 7 9 4 5 1022.4 1022.4 2.6
24/07:00am 11.6 10.7 11.4 99 0.1 SSE 7 11 4 6 1022.2 1022.2 2.6
24/06:30am 11.4 10.5 11.2 99 0.1 SE 7 9 4 5 1021.9 1021.9 2.6
24/06:00am 11.4 10.4 11.1 98 0.2 SE 7 7 4 4 1021.8 1021.8 2.6
24/05:30am 11.3 10.2 10.8 97 0.3 SE 7 9 4 5 1021.6 1021.6 2.6
24/05:00am 11.3 10.2 10.7 96 0.3 SE 7 11 4 6 1021.5 1021.5 2.6
24/04:30am 11.5 10.4 10.6 94 0.5 SE 7 9 4 5 1021.4 1021.4 2.6
24/04:00am 11.7 10.7 11.1 96 0.3 SE 7 9 4 5 1021.2 1021.2 2.6
24/03:30am 12.2 11.4 11.6 96 0.3 SE 7 9 4 5 1021.1 1021.1 2.6
24/03:00am 12.5 12.0 11.9 96 0.3 SSE 6 7 3 4 1021.1 1021.1 2.6
24/02:30am 12.9 12.2 12.0 94 0.5 SSE 7 11 4 6 1021.0 1021.0 2.6
24/02:00am 12.7 11.9 11.1 90 0.8 SSE 6 7 3 4 1020.9 1020.9 2.6
24/01:30am 12.6 11.8 11.2 91 0.7 SE 6 7 3 4 1020.6 1020.6 2.6
24/01:00am 12.6 11.9 11.5 93 0.6 SE 6 7 3 4 1020.5 1020.5 2.6
24/12:30am 12.9 12.1 11.6 92 0.7 ESE 7 9 4 5 1020.4 1020.4 2.6
24/12:00am 13.6 12.4 11.7 88 1.0 SE 9 13 5 7 1020.3 1020.3 2.6
 
Date/Time
WST
Tmp

°C
App
Tmp
°C
Dew
Point
°C
Rel
Hum
%
Delta-T

°C
Wind Press
QNH
hPa
Press
MSL
hPa
Rain
since
9 am
mm
Dir
 
Spd
km/h
Gust
km/h
Spd
kts
Gust
kts
23/11:30pm 14.0 13.0 12.4 90 0.9 SSE 9 13 5 7 1020.4 1020.4 2.6
23/11:00pm 14.4 13.1 12.6 89 1.0 SSE 11 17 6 9 1020.4 1020.4 2.6
23/10:30pm 14.7 13.9 12.9 89 1.0 SSE 9 13 5 7 1020.5 1020.5 2.6
23/10:00pm 15.0 14.4 13.5 91 0.8 SSE 9 15 5 8 1020.4 1020.4 2.6
23/09:30pm 15.0 15.2 14.8 99 0.1 SSE 7 11 4 6 1020.5 1020.5 2.6
23/09:00pm 15.4 16.1 14.6 95 0.5 S 4 6 2 3 1020.3 1020.3 2.6
23/08:30pm 15.9 15.9 14.1 89 1.0 SSE 7 11 4 6 1020.1 1020.1 2.6
23/08:00pm 16.5 15.6 13.6 83 1.6 SE 11 19 6 10 1019.9 1019.9 2.6
23/07:30pm 15.9 16.7 15.9 100 0.0 SSE 6 9 3 5 1019.9 1019.9 2.6
23/07:00pm 15.8 16.6 15.8 100 0.0 SE 6 7 3 4 1019.7 1019.7 2.6
23/06:30pm 15.9 17.5 15.9 100 0.0 SE 2 6 1 3 1019.6 1019.6 2.6
23/06:00pm 16.0 16.9 16.0 100 0.0 SSE 6 7 3 4 1019.4 1019.4 2.6
23/05:30pm 16.1 16.8 16.1 100 0.0 S 7 11 4 6 1019.3 1019.3 2.6
23/05:00pm 16.3 16.1 15.7 96 0.3 S 11 17 6 9 1019.0 1019.0 1.2
23/04:30pm 16.6 15.2 15.6 94 0.6 SSW 17 24 9 13 1018.5 1018.5 1.2
23/04:00pm 17.1 15.9 15.1 88 1.2 SSW 15 24 8 13 1018.4 1018.4 1.2
23/03:30pm 18.0 16.9 15.4 85 1.5 SW 15 24 8 13 1018.3 1018.3 1.2
23/03:00pm 18.2 18.0 15.8 86 1.4 WNW 11 20 6 11 1017.9 1017.9 1.2
23/02:30pm 19.5 20.4 16.5 83 1.8 WSW 7 20 4 11 1017.9 1017.9 1.2
23/02:00pm 21.3 20.7 13.5 61 4.5 W 9 13 5 7 1017.7 1017.7 0.0
23/01:30pm 21.5 21.8 13.4 60 4.7 SSE 4 9 2 5 1017.8 1017.8 0.0
23/01:00pm 20.1 20.2 13.8 67 3.6 SE 6 7 3 4 1018.0 1018.0 0.0
23/12:30pm 19.2 19.9 15.5 79 2.2 N 6 9 3 5 1018.3 1018.3 0.0
23/12:00pm 19.9 19.3 14.5 71 3.1 N 11 13 6 7 1018.5 1018.5 0.0
23/11:30am 19.4 18.1 13.6 69 3.3 N 13 15 7 8 1018.7 1018.7 0.0
23/11:00am 19.4 19.3 13.3 68 3.5 N 6 7 3 4 1018.8 1018.8 0.0
23/10:30am 18.7 18.6 12.2 66 3.6 NNE 4 6 2 3 1018.9 1018.9 0.0
23/10:00am 17.2 16.6 11.7 70 3.0 NNE 6 7 3 4 1019.0 1019.0 0.0
23/09:30am 16.1 15.3 11.1 72 2.7 NNE 6 7 3 4 1018.9 1018.9 0.0
23/09:00am 14.5 13.0 10.7 78 2.0 NNE 9 11 5 6 1018.8 1018.8 0.0
23/08:30am 12.7 11.9 9.5 81 1.6 NE 4 7 2 4 1018.7 1018.7 0.0
23/08:00am 12.5 11.2 9.3 81 1.6 NNE 6 9 3 5 1018.5 1018.5 0.0
23/07:30am 12.5 11.2 10.0 85 1.3 NNE 7 9 4 5 1018.3 1018.3 0.0
23/07:00am 10.9 9.9 9.0 88 0.9 NE 4 6 2 3 1018.1 1018.1 0.0
23/06:30am 10.7 9.3 8.8 88 0.9 NE 6 6 3 3 1017.9 1017.9 0.0
23/06:00am 10.0 8.9 8.4 90 0.8 E 4 6 2 3 1017.8 1017.8 0.0
23/05:30am 9.8 8.7 8.4 91 0.7 E 4 6 2 3 1017.6 1017.6 0.0
23/05:00am 9.6 8.5 8.4 92 0.6 E 4 7 2 4 1017.4 1017.4 0.0
23/04:30am 9.7 8.7 8.8 94 0.4 ESE 4 6 2 3 1017.5 1017.5 0.0
23/04:00am 10.2 9.7 9.3 94 0.4 ESE 2 6 1 3 1017.4 1017.4 0.0
23/03:30am 10.7 10.4 10.2 97 0.3 ESE 2 2 1 1 1017.3 1017.3 0.0
23/03:00am 11.1 11.0 10.9 99 0.1 ESE 2 4 1 2 1017.3 1017.3 0.0
23/02:30am 11.4 11.3 10.8 96 0.3 ESE 2 2 1 1 1017.3 1017.3 0.0
23/02:00am 11.4 11.2 10.6 95 0.4 ESE 2 4 1 2 1017.3 1017.3 0.0
23/01:30am 11.4 11.5 10.1 92 0.7 CALM 0 0 0 0 1017.3 1017.3 0.0
23/01:00am 11.7 10.9 9.6 87 1.1 ESE 4 6 2 3 1017.2 1017.2 0.0
23/12:30am 12.1 11.7 9.8 86 1.2 S 2 6 1 3 1017.3 1017.3 0.0
23/12:00am 12.5 11.7 9.5 82 1.5 SE 4 6 2 3 1017.5 1017.5 0.0
 
Date/Time
WST
Tmp

°C
App
Tmp
°C
Dew
Point
°C
Rel
Hum
%
Delta-T

°C
Wind Press
QNH
hPa
Press
MSL
hPa
Rain
since
9 am
mm
Dir
 
Spd
km/h
Gust
km/h
Spd
kts
Gust
kts
22/11:30pm 13.2 12.2 10.2 82 1.6 SE 6 9 3 5 1017.6 1017.6 0.0
22/11:00pm 13.6 12.7 10.6 82 1.6 SSE 6 11 3 6 1017.6 1017.6 0.0
22/10:30pm 14.1 12.9 10.3 78 2.0 SSE 7 9 4 5 1017.8 1017.8 0.0
22/10:00pm 14.2 12.8 10.8 80 1.8 SSE 9 11 5 6 1017.7 1017.7 0.0
22/09:30pm 14.4 13.5 11.4 82 1.6 SSE 7 9 4 5 1018.0 1018.0 0.0
22/09:00pm 14.1 13.6 12.0 87 1.1 SSE 6 9 3 5 1018.0 1018.0 0.0
22/08:30pm 14.3 13.8 12.0 86 1.2 S 6 7 3 4 1018.2 1018.2 0.0
22/08:00pm 14.5 14.2 11.5 82 1.6 SSE 4 6 2 3 1018.0 1018.0 0.0
22/07:30pm 15.1 14.8 11.5 79 1.9 SSE 4 6 2 3 1017.9 1017.9 0.0
22/07:00pm 15.6 15.1 10.6 72 2.6 SSE 4 6 2 3 1017.8 1017.8 0.0
22/06:30pm 16.3 15.3 10.2 67 3.2 S 6 7 3 4 1017.8 1017.8 0.0
22/06:00pm 16.6 15.5 10.0 65 3.5 SSW 6 9 3 5 1017.6 1017.6 0.0
22/05:30pm 17.2 16.1 9.9 62 3.8 SSW 6 9 3 5 1017.5 1017.5 0.0
22/05:00pm 18.1 16.4 9.7 58 4.4 SW 9 13 5 7 1017.4 1017.4 0.0
22/04:30pm 18.6 17.2 9.7 56 4.7 SW 7 11 4 6 1017.3 1017.3 0.0
22/04:00pm 18.8 17.1 8.5 51 5.3 SSW 7 11 4 6 1017.2 1017.2 0.0
22/03:30pm 18.6 16.2 8.6 52 5.2 WSW 11 13 6 7 1017.3 1017.3 0.0
22/03:00pm 18.9 17.0 9.1 53 5.1 WSW 9 13 5 7 1017.2 1017.2 0.0
22/02:30pm 19.5 18.0 9.1 51 5.5 W 7 9 4 5 1017.1 1017.1 0.0
22/02:00pm 19.8 18.1 8.5 48 5.9 WNW 7 7 4 4 1017.3 1017.3 0.0
22/01:30pm 19.4 17.9 9.3 52 5.3 WNW 7 9 4 5 1017.6 1017.6 0.0
22/01:00pm 20.0 19.1 11.5 58 4.7 NW 7 7 4 4 1017.8 1017.8 0.0
22/12:30pm 20.0 18.5 9.3 50 5.7 N 7 9 4 5 1018.2 1018.2 0.0
22/12:00pm 19.7 17.6 8.4 48 5.9 NNE 9 13 5 7 1018.7 1018.7 0.0
22/11:30am 19.9 17.9 8.6 48 5.9 NE 9 13 5 7 1019.2 1019.2 0.0
22/11:00am 19.2 16.2 7.9 48 5.8 NE 13 17 7 9 1019.6 1019.6 0.0
22/10:30am 18.2 14.7 7.3 49 5.5 NE 15 24 8 13 1020.0 1020.0 0.0
22/10:00am 17.3 15.4 7.6 53 4.9 E 7 15 4 8 1020.2 1020.2 0.0
22/09:30am 15.0 13.0 7.3 60 3.8 E 7 11 4 6 1020.4 1020.4 0.0
22/09:00am 13.2 11.4 7.0 66 3.0 ESE 6 11 3 6 1020.7 1020.7 0.0
22/08:30am 12.0 9.9 6.7 70 2.5 ESE 7 9 4 5 1021.0 1021.0 0.0
22/08:00am 11.2 9.1 6.5 73 2.2 ESE 7 11 4 6 1021.0 1021.0 0.0
22/07:30am 10.6 8.4 6.4 75 2.0 ESE 7 11 4 6 1020.8 1020.8 0.0
22/07:00am 10.6 8.4 6.0 73 2.1 ESE 7 11 4 6 1020.8 1020.8 0.0
22/06:30am 10.7 8.1 5.9 72 2.2 ESE 9 13 5 7 1020.8 1020.8 0.0
22/06:00am 10.6 8.3 5.8 72 2.2 ESE 7 11 4 6 1020.8 1020.8 0.0
22/05:30am 10.8 8.5 5.6 70 2.4 ESE 7 9 4 5 1020.9 1020.9 0.0
22/05:00am 11.7 9.3 5.3 65 2.9 SE 7 11 4 6 1020.9 1020.9 0.0
22/04:30am 11.8 9.0 5.2 64 3.0 SE 9 11 5 6 1020.9 1020.9 0.0
22/04:00am 11.8 9.4 5.4 65 2.9 SE 7 11 4 6 1020.9 1020.9 0.0
22/03:30am 12.2 9.8 5.4 63 3.2 SE 7 11 4 6 1021.1 1021.1 0.0
22/03:00am 12.1 9.7 5.3 63 3.1 ESE 7 9 4 5 1021.2 1021.2 0.0
22/02:30am 12.5 10.2 5.0 60 3.5 E 6 9 3 5 1021.5 1021.5 0.0
22/02:00am 13.2 11.0 5.4 59 3.6 ESE 6 7 3 4 1021.9 1021.9 0.0
22/01:30am 13.3 11.5 5.2 58 3.8 ESE 4 6 2 3 1022.2 1022.2 0.0
22/01:00am 13.5 11.0 4.9 56 4.0 ESE 7 9 4 5 1022.2 1022.2 0.0
22/12:30am 13.4 10.9 4.8 56 4.0 ESE 7 9 4 5 1022.3 1022.3 0.0
22/12:00am 14.0 11.6 5.4 56 4.0 ESE 7 9 4 5 1022.5 1022.5 0.0
 
Date/Time
WST
Tmp

°C
App
Tmp
°C
Dew
Point
°C
Rel
Hum
%
Delta-T

°C
Wind Press
QNH
hPa
Press
MSL
hPa
Rain
since
9 am
mm
Dir
 
Spd
km/h
Gust
km/h
Spd
kts
Gust
kts
21/11:30pm 14.5 12.3 5.3 54 4.3 SE 6 9 3 5 1022.6 1022.6 0.0
21/11:00pm 14.7 12.4 5.5 54 4.3 SE 7 11 4 6 1022.7 1022.7 0.0
21/10:30pm 14.9 12.6 5.7 54 4.4 SE 7 11 4 6 1023.0 1023.0 0.0
21/10:00pm 14.7 12.6 6.0 56 4.1 ESE 6 9 3 5 1023.1 1023.1 0.0
21/09:30pm 14.9 12.7 6.0 55 4.3 SE 7 9 4 5 1023.1 1023.1 0.0
21/09:00pm 15.1 12.5 6.1 55 4.3 ESE 9 13 5 7 1023.2 1023.2 0.0
21/08:30pm 15.0 12.8 6.3 56 4.2 ESE 7 11 4 6 1023.1 1023.1 0.0
21/08:00pm 15.2 12.6 6.0 54 4.4 ESE 9 11 5 6 1023.2 1023.2 0.0
21/07:30pm 15.1 12.8 5.9 54 4.4 E 7 11 4 6 1023.3 1023.3 0.0
21/07:00pm 15.6 13.3 5.8 52 4.7 E 7 11 4 6 1023.3 1023.3 0.0
21/06:30pm 15.8 13.2 6.0 52 4.7 ESE 9 15 5 8 1023.2 1023.2 0.0
21/06:00pm 16.0 13.4 6.2 52 4.7 ESE 9 17 5 9 1023.0 1023.0 0.0
21/05:30pm 16.4 14.2 6.2 51 5.0 ESE 7 11 4 6 1022.9 1022.9 0.0
21/05:00pm 16.8 14.8 6.9 52 4.9 SE 7 11 4 6 1022.8 1022.8 0.0
21/04:30pm 17.2 14.0 6.7 50 5.2 ESE 13 19 7 10 1022.8 1022.8 0.0
21/04:00pm 17.6 15.2 7.1 50 5.2 ESE 9 15 5 8 1023.1 1023.1 0.0
21/03:30pm 17.9 15.0 6.4 47 5.7 E 11 19 6 10 1023.3 1023.3 0.0
21/03:00pm 18.0 15.4 5.9 45 5.9 ESE 9 13 5 7 1023.5 1023.5 0.0
21/02:30pm 17.9 14.5 6.1 46 5.8 NE 13 19 7 10 1023.7 1023.7 0.0
21/02:00pm 18.5 14.9 6.7 46 5.9 NE 15 22 8 12 1023.9 1023.9 0.0
21/01:30pm 19.8 16.8 5.8 40 6.9 ENE 11 19 6 10 1024.1 1024.1 0.0

Latest Capital City Observations: Canberra | Sydney | Melbourne | Brisbane | Adelaide | Perth | Hobart | Darwin

Other Formats:

Comma delimited format used in spreadsheet applications
http://www.bom.gov.au/fwo/IDW60901/IDW60901.94605.axf

JavaScript Object Notation format (JSON) in row-major order
http://www.bom.gov.au/fwo/IDW60901/IDW60901.94605.json